createdAt,value
2019-03-10T11:05:19.327Z,1.60
2019-03-10T11:08:07.313Z,1.70
2019-03-10T11:10:55.506Z,1.73
2019-03-10T11:13:39.402Z,1.60
2019-03-10T11:16:31.114Z,2.10
2019-03-10T11:19:22.067Z,1.85
2019-03-10T11:22:06.029Z,2.17
2019-03-10T11:25:03.724Z,2.03
2019-03-10T11:27:55.044Z,1.57
2019-03-10T11:30:35.433Z,1.70
2019-03-10T11:33:22.270Z,1.73
2019-03-10T11:36:12.985Z,1.50
2019-03-10T11:39:00.824Z,1.90
2019-03-10T11:41:35.722Z,1.53
2019-03-10T11:44:15.638Z,1.80
2019-03-10T11:46:55.610Z,1.97
2019-03-10T11:49:50.089Z,1.70
2019-03-10T11:52:28.115Z,2.00
2019-03-10T11:55:16.029Z,1.50
2019-03-10T11:58:06.389Z,1.80
2019-03-10T12:00:53.500Z,1.67
2019-03-10T12:03:34.629Z,1.80
2019-03-10T12:06:12.961Z,1.63
2019-03-10T12:09:06.506Z,1.77
2019-03-10T12:11:35.351Z,1.40
2019-03-10T12:14:04.177Z,1.50
2019-03-10T12:16:33.044Z,1.60
2019-03-10T12:19:01.929Z,2.43
2019-03-10T12:21:30.763Z,1.50
2019-03-10T12:23:59.597Z,1.40
2019-03-10T12:26:28.441Z,1.70
2019-03-10T12:28:57.267Z,1.70
2019-03-10T12:31:26.120Z,1.47
2019-03-10T12:33:54.958Z,1.40
2019-03-10T12:36:23.815Z,1.60
2019-03-10T12:38:52.636Z,1.33
2019-03-10T12:41:21.492Z,1.20
2019-03-10T12:43:50.338Z,1.40
2019-03-10T12:46:19.195Z,1.43
2019-03-10T12:48:48.034Z,1.37
2019-03-10T12:51:16.891Z,1.23
2019-03-10T12:53:45.729Z,1.10
2019-03-10T12:56:14.575Z,1.35
2019-03-10T12:58:43.498Z,1.40
2019-03-10T13:01:12.347Z,1.40
2019-03-10T13:03:41.310Z,1.25
2019-03-10T13:06:10.069Z,1.30
2019-03-10T13:08:38.928Z,1.13
2019-03-10T13:11:07.767Z,1.10
2019-03-10T13:13:36.598Z,1.23
2019-03-10T13:16:05.458Z,1.20
2019-03-10T13:18:34.317Z,1.23
2019-03-10T13:21:03.165Z,1.43
2019-03-10T13:23:32.008Z,1.20
2019-03-10T13:26:00.868Z,1.35
2019-03-10T13:28:29.738Z,1.30
2019-03-10T13:30:58.579Z,1.30
2019-03-10T13:33:27.442Z,1.40
2019-03-10T13:35:57.073Z,1.30
2019-03-10T13:38:25.121Z,1.00
2019-03-10T13:40:53.953Z,1.00
2019-03-10T13:43:22.809Z,1.20
2019-03-10T13:45:51.652Z,0.97
2019-03-10T13:48:20.812Z,0.80
2019-03-10T13:50:49.643Z,1.00
2019-03-10T13:53:18.493Z,1.00
2019-03-10T13:55:47.334Z,1.10
2019-03-10T13:58:16.191Z,1.10
2019-03-10T14:00:45.042Z,1.00
2019-03-10T14:03:14.020Z,1.15
2019-03-10T14:05:42.900Z,1.00
2019-03-10T14:08:11.760Z,1.07
2019-03-10T14:10:40.661Z,1.20
2019-03-10T14:13:09.716Z,0.97
2019-03-10T14:15:38.541Z,0.90
2019-03-10T14:18:07.397Z,1.10
2019-03-10T14:20:36.239Z,0.90
2019-03-10T14:23:05.110Z,1.00
2019-03-10T14:25:33.920Z,0.95
2019-03-10T14:28:02.758Z,1.10
2019-03-10T14:30:31.597Z,0.90
2019-03-10T14:33:00.460Z,1.10
2019-03-10T14:35:29.302Z,0.87
2019-03-10T14:37:58.156Z,1.00
2019-03-10T14:40:27.082Z,1.00
2019-03-10T14:42:55.926Z,0.90
2019-03-10T14:45:24.758Z,1.20
2019-03-10T14:47:53.612Z,1.00
2019-03-10T14:50:22.448Z,0.87
2019-03-10T14:52:51.293Z,1.05
2019-03-10T14:55:20.146Z,0.90
2019-03-10T14:57:51.033Z,1.07
2019-03-10T15:00:19.560Z,0.90
2019-03-10T15:02:54.943Z,0.87
2019-03-10T15:05:23.791Z,0.80
2019-03-10T15:07:52.638Z,0.80
2019-03-10T15:10:21.462Z,0.80
2019-03-10T15:12:50.607Z,0.80
2019-03-10T15:15:22.667Z,1.03
2019-03-10T15:17:48.296Z,0.70
2019-03-10T15:20:17.116Z,1.00
2019-03-10T15:22:45.958Z,0.70
2019-03-10T15:25:14.965Z,0.90
2019-03-10T15:27:43.802Z,0.87
2019-03-10T15:30:16.258Z,1.05
2019-03-10T15:32:45.098Z,0.83
2019-03-10T15:35:13.961Z,1.00
2019-03-10T15:37:42.832Z,1.00
2019-03-10T15:40:12.335Z,0.80
2019-03-10T15:42:41.359Z,0.60
2019-03-10T15:45:10.744Z,0.80
2019-03-10T15:47:39.781Z,0.90
2019-03-10T15:50:16.290Z,0.73
2019-03-10T15:52:45.463Z,0.80
2019-03-10T15:55:14.467Z,0.90
2019-03-10T15:57:50.045Z,0.60
2019-03-10T16:00:16.380Z,1.00
2019-03-10T16:02:45.288Z,0.63
2019-03-10T16:05:14.118Z,0.80
2019-03-10T16:07:43.037Z,0.90
2019-03-10T16:10:12.006Z,0.70
2019-03-10T16:12:40.865Z,0.80
2019-03-10T16:15:11.167Z,0.80
2019-03-10T16:17:40.193Z,0.73
2019-03-10T16:20:09.729Z,0.93
2019-03-10T16:22:38.591Z,1.00
2019-03-10T16:25:08.360Z,0.80
2019-03-10T16:27:37.249Z,0.83
2019-03-10T16:30:06.531Z,0.90
2019-03-10T16:32:35.438Z,0.90
2019-03-10T16:35:04.565Z,0.87
2019-03-10T16:37:33.373Z,1.20
2019-03-10T16:40:02.194Z,1.30
2019-03-10T16:42:31.035Z,0.90
2019-03-10T16:44:59.885Z,1.00
2019-03-10T16:47:28.743Z,0.90
2019-03-10T16:49:57.671Z,1.00
2019-03-10T16:52:26.494Z,0.80
2019-03-10T16:54:55.335Z,0.90
2019-03-10T16:57:24.935Z,0.80
2019-03-10T16:59:53.030Z,1.10
2019-03-10T17:02:21.998Z,1.00
2019-03-10T17:04:50.829Z,1.00
2019-03-10T17:07:19.764Z,1.00
2019-03-10T17:09:48.606Z,1.07
2019-03-10T17:12:17.438Z,1.00
2019-03-10T17:14:46.453Z,1.00
2019-03-10T17:17:15.282Z,0.90
2019-03-10T17:19:44.139Z,0.93
2019-03-10T17:22:12.973Z,0.80
2019-03-10T17:24:41.828Z,0.90
2019-03-10T17:27:10.694Z,0.70
2019-03-10T17:29:39.648Z,0.63
2019-03-10T17:32:08.561Z,0.83
2019-03-10T17:34:37.570Z,1.03
2019-03-10T17:37:06.431Z,0.90
2019-03-10T17:39:35.330Z,0.90
2019-03-10T17:42:04.150Z,0.90
2019-03-10T17:44:40.689Z,0.80
2019-03-10T17:47:01.939Z,0.80
2019-03-10T17:49:30.809Z,0.70
2019-03-10T17:51:59.935Z,0.80
2019-03-10T17:54:29.013Z,0.70
2019-03-10T17:56:57.935Z,1.00
2019-03-10T17:59:26.856Z,1.10
2019-03-10T18:01:55.751Z,0.80
2019-03-10T18:04:24.716Z,0.80
2019-03-10T18:06:53.645Z,0.90
2019-03-10T18:09:23.113Z,0.90
2019-03-10T18:11:51.439Z,0.70
2019-03-10T18:14:20.269Z,1.03
2019-03-10T18:16:49.155Z,1.30
2019-03-10T18:19:17.973Z,2.70
2019-03-10T18:21:46.849Z,1.60
2019-03-10T18:24:15.734Z,1.73
2019-03-10T18:26:45.093Z,1.93
2019-03-10T18:29:14.473Z,1.83
2019-03-10T18:31:43.372Z,2.17
2019-03-10T18:34:12.325Z,2.00
2019-03-10T18:36:41.313Z,2.30
2019-03-10T18:39:10.150Z,2.00
2019-03-10T18:41:39.006Z,1.90
2019-03-10T18:44:07.831Z,2.00
2019-03-10T18:46:37.747Z,2.57
2019-03-10T18:49:06.726Z,2.07
2019-03-10T18:51:35.660Z,1.90
2019-03-10T18:54:04.496Z,1.90
2019-03-10T18:56:33.373Z,1.70
2019-03-10T18:59:02.219Z,1.70
2019-03-10T19:01:31.057Z,2.05
2019-03-10T19:03:59.956Z,2.03
2019-03-10T19:06:28.857Z,1.80
2019-03-10T19:08:57.695Z,1.77
2019-03-10T19:11:26.528Z,1.83
2019-03-10T19:13:55.388Z,1.75
2019-03-10T19:16:24.279Z,1.70
2019-03-10T19:18:53.142Z,2.10
2019-03-10T19:21:21.970Z,1.83
2019-03-10T19:23:50.816Z,1.60
2019-03-10T19:26:19.714Z,1.70
2019-03-10T19:28:48.553Z,1.53
2019-03-10T19:31:17.427Z,1.87
2019-03-10T19:33:46.336Z,1.80
2019-03-10T19:36:15.187Z,2.00
2019-03-10T19:38:44.144Z,1.80
2019-03-10T19:41:13.058Z,1.73
2019-03-10T19:43:41.894Z,1.97
2019-03-10T19:46:10.833Z,1.73
2019-03-10T19:48:39.698Z,2.10
2019-03-10T19:51:08.561Z,2.43
2019-03-10T19:53:37.410Z,2.23
2019-03-10T19:56:06.294Z,2.63
2019-03-10T19:58:35.204Z,1.90
2019-03-10T20:01:04.076Z,2.10
2019-03-10T20:03:32.978Z,1.80
2019-03-10T20:06:01.884Z,2.73
2019-03-10T20:08:30.729Z,1.80
2019-03-10T20:10:59.663Z,2.20
2019-03-10T20:13:28.586Z,2.10
2019-03-10T20:15:57.507Z,1.70
2019-03-10T20:18:26.364Z,1.83
2019-03-10T20:20:55.213Z,2.83
2019-03-10T20:23:24.170Z,2.00
2019-03-10T20:25:53.103Z,1.73
2019-03-10T20:28:22.080Z,1.63
2019-03-10T20:30:50.927Z,2.00
2019-03-10T20:33:19.786Z,2.13
2019-03-10T20:35:48.602Z,1.87
2019-03-10T20:38:17.460Z,1.90
2019-03-10T20:40:46.314Z,1.83
2019-03-10T20:43:15.148Z,1.80
2019-03-10T20:45:44.022Z,1.80
2019-03-10T20:48:12.872Z,1.80
2019-03-10T20:50:41.724Z,1.40
2019-03-10T20:53:10.592Z,1.80
2019-03-10T20:55:39.512Z,1.60
2019-03-10T20:58:08.432Z,1.73
2019-03-10T21:00:37.292Z,2.10
2019-03-10T21:03:06.145Z,1.70
2019-03-10T21:05:34.974Z,1.60
2019-03-10T21:08:03.817Z,1.73
2019-03-10T21:10:32.702Z,1.70
2019-03-10T21:13:01.545Z,1.35
2019-03-10T21:15:30.381Z,1.70
2019-03-10T21:17:59.224Z,2.00
2019-03-10T21:20:28.099Z,1.90
2019-03-10T21:22:56.939Z,1.50
2019-03-10T21:25:25.772Z,1.83
2019-03-10T21:27:54.662Z,1.67
2019-03-10T21:30:23.782Z,1.80
2019-03-10T21:32:52.699Z,1.83
2019-03-10T21:35:21.526Z,1.70
2019-03-10T21:37:50.369Z,1.37
2019-03-10T21:40:20.044Z,1.70
2019-03-10T21:42:48.984Z,1.65
2019-03-10T21:45:17.720Z,1.50
2019-03-10T21:47:46.556Z,1.50
2019-03-10T21:50:15.427Z,1.53
2019-03-10T21:52:44.348Z,1.50
2019-03-10T21:55:13.236Z,1.50
2019-03-10T21:57:42.115Z,1.50
2019-03-10T22:00:11.536Z,1.20
2019-03-10T22:02:40.372Z,1.47
2019-03-10T22:05:09.614Z,1.40
2019-03-10T22:07:38.459Z,1.37
2019-03-10T22:10:07.479Z,1.80
2019-03-10T22:12:36.394Z,1.40
2019-03-10T22:15:05.352Z,1.50
2019-03-10T22:17:34.278Z,1.60
2019-03-10T22:20:03.125Z,1.50
2019-03-10T22:22:31.996Z,1.87
2019-03-10T22:25:12.243Z,1.50
2019-03-10T22:27:29.684Z,1.40
2019-03-10T22:29:58.701Z,1.30
2019-03-10T22:32:27.599Z,1.30
2019-03-10T22:34:56.425Z,1.40
2019-03-10T22:37:25.290Z,1.60
2019-03-10T22:39:54.227Z,1.27
2019-03-10T22:42:23.081Z,1.20
2019-03-10T22:44:51.924Z,1.40
2019-03-10T22:47:20.762Z,1.37
2019-03-10T22:49:49.914Z,1.10
2019-03-10T22:52:18.754Z,1.40
2019-03-10T22:54:47.573Z,1.47
2019-03-10T22:57:16.412Z,1.10
2019-03-10T22:59:45.513Z,1.35
2019-03-10T23:02:14.273Z,1.20
2019-03-10T23:04:43.123Z,1.20
2019-03-10T23:07:11.949Z,1.15
2019-03-10T23:09:40.846Z,1.20
2019-03-10T23:12:09.674Z,1.10
2019-03-10T23:14:38.515Z,1.13
2019-03-10T23:17:07.342Z,1.17
2019-03-10T23:19:36.315Z,1.30
2019-03-10T23:22:05.164Z,1.30
2019-03-10T23:24:34.123Z,1.40
2019-03-10T23:27:02.994Z,1.30
2019-03-10T23:29:31.869Z,1.20
2019-03-10T23:32:00.678Z,1.30
2019-03-10T23:34:29.628Z,1.20
2019-03-10T23:36:58.481Z,1.33
2019-03-10T23:39:27.329Z,1.20
2019-03-10T23:41:56.219Z,1.20
2019-03-10T23:44:25.057Z,1.10
2019-03-10T23:46:53.894Z,1.30
2019-03-10T23:49:22.822Z,1.00
2019-03-10T23:51:51.661Z,1.10
2019-03-10T23:54:20.539Z,1.17
2019-03-10T23:56:49.371Z,1.00
2019-03-10T23:59:18.246Z,1.13
